sensor_id;sensor_type;location;lat;lon;timestamp;temperature;humidity
11087;DHT22;5597;47.588;9.642;2023-07-28T00:02:18;15.10;99.90
11087;DHT22;5597;47.588;9.642;2023-07-28T00:04:44;15.10;99.90
11087;DHT22;5597;47.588;9.642;2023-07-28T00:07:09;15.10;99.90
11087;DHT22;5597;47.588;9.642;2023-07-28T00:09:35;15.10;99.90
11087;DHT22;5597;47.588;9.642;2023-07-28T00:12:01;15.10;99.90
11087;DHT22;5597;47.588;9.642;2023-07-28T00:14:27;15.10;99.90
11087;DHT22;5597;47.588;9.642;2023-07-28T00:16:53;15.10;99.90
11087;DHT22;5597;47.588;9.642;2023-07-28T00:19:20;15.10;99.90
11087;DHT22;5597;47.588;9.642;2023-07-28T00:21:47;15.10;99.90
11087;DHT22;5597;47.588;9.642;2023-07-28T00:24:13;15.10;99.90
11087;DHT22;5597;47.588;9.642;2023-07-28T00:26:38;15.10;99.90
11087;DHT22;5597;47.588;9.642;2023-07-28T00:29:04;15.20;99.90
11087;DHT22;5597;47.588;9.642;2023-07-28T00:31:32;15.20;99.90
11087;DHT22;5597;47.588;9.642;2023-07-28T00:33:57;15.20;99.90
11087;DHT22;5597;47.588;9.642;2023-07-28T00:36:23;15.20;99.90
11087;DHT22;5597;47.588;9.642;2023-07-28T00:38:49;15.30;99.90
11087;DHT22;5597;47.588;9.642;2023-07-28T00:41:14;15.30;99.90
11087;DHT22;5597;47.588;9.642;2023-07-28T00:43:40;15.30;99.90
11087;DHT22;5597;47.588;9.642;2023-07-28T00:46:06;15.30;99.90
11087;DHT22;5597;47.588;9.642;2023-07-28T00:48:32;15.30;99.90
11087;DHT22;5597;47.588;9.642;2023-07-28T00:50:57;15.30;99.90
11087;DHT22;5597;47.588;9.642;2023-07-28T00:53:24;15.30;99.90
11087;DHT22;5597;47.588;9.642;2023-07-28T00:55:50;15.30;99.90
11087;DHT22;5597;47.588;9.642;2023-07-28T00:58:16;15.20;99.90
11087;DHT22;5597;47.588;9.642;2023-07-28T01:00:41;15.20;99.90
11087;DHT22;5597;47.588;9.642;2023-07-28T01:03:07;15.20;99.90
11087;DHT22;5597;47.588;9.642;2023-07-28T01:08:25;15.10;99.90
11087;DHT22;5597;47.588;9.642;2023-07-28T01:10:52;15.00;99.90
11087;DHT22;5597;47.588;9.642;2023-07-28T01:13:18;14.90;99.90
11087;DHT22;5597;47.588;9.642;2023-07-28T01:15:43;14.90;99.90
11087;DHT22;5597;47.588;9.642;2023-07-28T01:18:09;14.80;99.90
11087;DHT22;5597;47.588;9.642;2023-07-28T01:20:36;14.70;99.90
11087;DHT22;5597;47.588;9.642;2023-07-28T01:23:09;14.70;99.90
11087;DHT22;5597;47.588;9.642;2023-07-28T01:28:15;14.70;99.90
11087;DHT22;5597;47.588;9.642;2023-07-28T01:30:42;14.70;99.90
11087;DHT22;5597;47.588;9.642;2023-07-28T01:33:07;14.80;99.90
11087;DHT22;5597;47.588;9.642;2023-07-28T01:35:35;14.80;99.90
11087;DHT22;5597;47.588;9.642;2023-07-28T01:38:01;14.80;99.90
11087;DHT22;5597;47.588;9.642;2023-07-28T01:40:26;14.90;99.90
11087;DHT22;5597;47.588;9.642;2023-07-28T01:42:52;14.90;99.90
11087;DHT22;5597;47.588;9.642;2023-07-28T01:45:17;14.90;99.90
11087;DHT22;5597;47.588;9.642;2023-07-28T01:47:43;14.90;99.90
11087;DHT22;5597;47.588;9.642;2023-07-28T01:50:09;15.00;99.90
11087;DHT22;5597;47.588;9.642;2023-07-28T01:52:34;15.00;99.90
11087;DHT22;5597;47.588;9.642;2023-07-28T01:55:00;15.10;99.90
11087;DHT22;5597;47.588;9.642;2023-07-28T01:57:26;15.20;99.90
11087;DHT22;5597;47.588;9.642;2023-07-28T01:59:53;15.20;99.90
11087;DHT22;5597;47.588;9.642;2023-07-28T02:02:19;15.20;99.90
11087;DHT22;5597;47.588;9.642;2023-07-28T02:04:44;15.30;99.90
11087;DHT22;5597;47.588;9.642;2023-07-28T02:07:10;15.30;99.90
11087;DHT22;5597;47.588;9.642;2023-07-28T02:09:35;15.40;99.90
11087;DHT22;5597;47.588;9.642;2023-07-28T02:12:01;15.40;99.90
11087;DHT22;5597;47.588;9.642;2023-07-28T02:14:26;15.40;99.90
11087;DHT22;5597;47.588;9.642;2023-07-28T02:16:52;15.50;99.90
11087;DHT22;5597;47.588;9.642;2023-07-28T02:19:17;15.50;99.90
11087;DHT22;5597;47.588;9.642;2023-07-28T02:21:43;15.60;99.90
11087;DHT22;5597;47.588;9.642;2023-07-28T02:24:08;15.60;99.90
11087;DHT22;5597;47.588;9.642;2023-07-28T02:26:34;15.70;99.90
11087;DHT22;5597;47.588;9.642;2023-07-28T02:28:59;15.80;99.90
11087;DHT22;5597;47.588;9.642;2023-07-28T02:31:25;15.90;99.90
11087;DHT22;5597;47.588;9.642;2023-07-28T02:33:50;16.00;99.90
11087;DHT22;5597;47.588;9.642;2023-07-28T02:36:16;16.00;99.90
11087;DHT22;5597;47.588;9.642;2023-07-28T02:38:41;16.10;99.90
11087;DHT22;5597;47.588;9.642;2023-07-28T02:41:07;16.20;99.90
11087;DHT22;5597;47.588;9.642;2023-07-28T02:43:33;16.30;99.90
11087;DHT22;5597;47.588;9.642;2023-07-28T02:45:59;16.30;99.90
11087;DHT22;5597;47.588;9.642;2023-07-28T02:48:25;16.40;99.90
11087;DHT22;5597;47.588;9.642;2023-07-28T02:50:51;16.40;99.90
11087;DHT22;5597;47.588;9.642;2023-07-28T02:53:17;16.50;99.90
11087;DHT22;5597;47.588;9.642;2023-07-28T02:55:44;16.50;99.90
11087;DHT22;5597;47.588;9.642;2023-07-28T02:58:11;16.50;99.90
11087;DHT22;5597;47.588;9.642;2023-07-28T03:00:38;16.50;99.90
11087;DHT22;5597;47.588;9.642;2023-07-28T03:03:05;16.60;99.90
11087;DHT22;5597;47.588;9.642;2023-07-28T03:05:31;16.60;99.90
11087;DHT22;5597;47.588;9.642;2023-07-28T03:07:57;16.60;99.90
11087;DHT22;5597;47.588;9.642;2023-07-28T03:10:23;16.60;99.90
11087;DHT22;5597;47.588;9.642;2023-07-28T03:12:49;16.50;99.90
11087;DHT22;5597;47.588;9.642;2023-07-28T03:15:14;16.50;99.90
11087;DHT22;5597;47.588;9.642;2023-07-28T03:17:40;16.50;99.90
11087;DHT22;5597;47.588;9.642;2023-07-28T03:20:06;16.40;99.90
11087;DHT22;5597;47.588;9.642;2023-07-28T03:22:31;16.40;99.90
11087;DHT22;5597;47.588;9.642;2023-07-28T03:24:57;16.40;99.90
11087;DHT22;5597;47.588;9.642;2023-07-28T03:27:23;16.50;99.90
11087;DHT22;5597;47.588;9.642;2023-07-28T03:29:48;16.50;99.90
11087;DHT22;5597;47.588;9.642;2023-07-28T03:32:14;16.50;99.90
11087;DHT22;5597;47.588;9.642;2023-07-28T03:34:40;16.40;99.90
11087;DHT22;5597;47.588;9.642;2023-07-28T03:37:06;16.40;99.90
11087;DHT22;5597;47.588;9.642;2023-07-28T03:39:31;16.40;99.90
11087;DHT22;5597;47.588;9.642;2023-07-28T03:41:57;16.30;99.90
11087;DHT22;5597;47.588;9.642;2023-07-28T03:44:23;16.30;99.90
11087;DHT22;5597;47.588;9.642;2023-07-28T03:46:49;16.30;99.90
11087;DHT22;5597;47.588;9.642;2023-07-28T03:49:14;16.30;99.90
11087;DHT22;5597;47.588;9.642;2023-07-28T03:51:40;16.20;99.90
11087;DHT22;5597;47.588;9.642;2023-07-28T03:54:06;16.20;99.90
11087;DHT22;5597;47.588;9.642;2023-07-28T03:56:31;16.20;99.90
11087;DHT22;5597;47.588;9.642;2023-07-28T03:58:57;16.20;99.90
11087;DHT22;5597;47.588;9.642;2023-07-28T04:01:22;16.20;99.90
11087;DHT22;5597;47.588;9.642;2023-07-28T04:03:49;16.20;99.90
11087;DHT22;5597;47.588;9.642;2023-07-28T04:06:15;16.20;99.90
11087;DHT22;5597;47.588;9.642;2023-07-28T04:08:41;16.20;99.90
11087;DHT22;5597;47.588;9.642;2023-07-28T04:11:06;16.20;99.90
11087;DHT22;5597;47.588;9.642;2023-07-28T04:13:33;16.10;99.90
11087;DHT22;5597;47.588;9.642;2023-07-28T04:15:59;16.10;99.90
11087;DHT22;5597;47.588;9.642;2023-07-28T04:18:24;16.10;99.90
11087;DHT22;5597;47.588;9.642;2023-07-28T04:20:50;16.10;99.90
11087;DHT22;5597;47.588;9.642;2023-07-28T04:23:16;16.00;99.90
11087;DHT22;5597;47.588;9.642;2023-07-28T04:25:41;16.00;99.90
11087;DHT22;5597;47.588;9.642;2023-07-28T04:28:07;16.10;99.90
11087;DHT22;5597;47.588;9.642;2023-07-28T04:30:32;16.00;99.90
11087;DHT22;5597;47.588;9.642;2023-07-28T04:32:58;16.00;99.90
11087;DHT22;5597;47.588;9.642;2023-07-28T04:35:23;16.00;99.90
11087;DHT22;5597;47.588;9.642;2023-07-28T04:37:49;16.00;99.90
11087;DHT22;5597;47.588;9.642;2023-07-28T04:40:15;16.00;99.90
11087;DHT22;5597;47.588;9.642;2023-07-28T04:42:40;16.00;99.90
11087;DHT22;5597;47.588;9.642;2023-07-28T04:45:06;16.10;99.90
11087;DHT22;5597;47.588;9.642;2023-07-28T04:47:32;16.10;99.90
11087;DHT22;5597;47.588;9.642;2023-07-28T04:49:58;16.10;99.90
11087;DHT22;5597;47.588;9.642;2023-07-28T04:52:23;16.10;99.90
11087;DHT22;5597;47.588;9.642;2023-07-28T04:54:49;16.20;99.90
11087;DHT22;5597;47.588;9.642;2023-07-28T04:57:15;16.20;99.90
11087;DHT22;5597;47.588;9.642;2023-07-28T04:59:40;16.20;99.90
11087;DHT22;5597;47.588;9.642;2023-07-28T05:02:06;16.30;99.90
11087;DHT22;5597;47.588;9.642;2023-07-28T05:04:31;16.30;99.90
11087;DHT22;5597;47.588;9.642;2023-07-28T05:06:57;16.40;99.90
11087;DHT22;5597;47.588;9.642;2023-07-28T05:09:23;16.50;99.90
11087;DHT22;5597;47.588;9.642;2023-07-28T05:11:49;16.60;99.90
11087;DHT22;5597;47.588;9.642;2023-07-28T05:14:14;16.70;99.90
11087;DHT22;5597;47.588;9.642;2023-07-28T05:16:40;16.70;99.90
11087;DHT22;5597;47.588;9.642;2023-07-28T05:19:06;16.80;99.90
11087;DHT22;5597;47.588;9.642;2023-07-28T05:21:33;16.90;99.90
11087;DHT22;5597;47.588;9.642;2023-07-28T05:23:58;16.90;99.90
11087;DHT22;5597;47.588;9.642;2023-07-28T05:26:24;17.00;99.90
11087;DHT22;5597;47.588;9.642;2023-07-28T05:28:49;17.10;99.90
11087;DHT22;5597;47.588;9.642;2023-07-28T05:31:16;17.10;99.90
11087;DHT22;5597;47.588;9.642;2023-07-28T05:33:41;17.20;99.90
11087;DHT22;5597;47.588;9.642;2023-07-28T05:36:07;17.30;99.90
11087;DHT22;5597;47.588;9.642;2023-07-28T05:38:33;17.30;99.90
11087;DHT22;5597;47.588;9.642;2023-07-28T05:41:03;17.40;99.90
11087;DHT22;5597;47.588;9.642;2023-07-28T05:43:30;17.50;99.90
11087;DHT22;5597;47.588;9.642;2023-07-28T05:45:57;17.50;99.90
11087;DHT22;5597;47.588;9.642;2023-07-28T05:48:22;17.50;99.90
11087;DHT22;5597;47.588;9.642;2023-07-28T05:50:48;17.60;99.90
11087;DHT22;5597;47.588;9.642;2023-07-28T05:53:14;17.60;99.90
11087;DHT22;5597;47.588;9.642;2023-07-28T05:55:40;17.70;99.90
11087;DHT22;5597;47.588;9.642;2023-07-28T05:58:05;17.80;99.90
11087;DHT22;5597;47.588;9.642;2023-07-28T06:00:31;17.80;99.90
11087;DHT22;5597;47.588;9.642;2023-07-28T06:02:57;17.80;99.90
11087;DHT22;5597;47.588;9.642;2023-07-28T06:05:22;17.90;99.90
11087;DHT22;5597;47.588;9.642;2023-07-28T06:07:48;17.90;99.90
11087;DHT22;5597;47.588;9.642;2023-07-28T06:10:14;18.00;99.90
11087;DHT22;5597;47.588;9.642;2023-07-28T06:12:39;18.00;99.90
11087;DHT22;5597;47.588;9.642;2023-07-28T06:15:05;18.10;99.90
11087;DHT22;5597;47.588;9.642;2023-07-28T06:17:31;18.20;99.90
11087;DHT22;5597;47.588;9.642;2023-07-28T06:19:57;18.30;99.90
11087;DHT22;5597;47.588;9.642;2023-07-28T06:22:22;18.40;99.90
11087;DHT22;5597;47.588;9.642;2023-07-28T06:24:48;18.50;99.90
11087;DHT22;5597;47.588;9.642;2023-07-28T06:27:14;18.80;99.90
11087;DHT22;5597;47.588;9.642;2023-07-28T06:29:39;19.00;99.90
11087;DHT22;5597;47.588;9.642;2023-07-28T06:32:05;19.20;99.90
11087;DHT22;5597;47.588;9.642;2023-07-28T06:34:31;19.30;99.90
11087;DHT22;5597;47.588;9.642;2023-07-28T06:36:56;19.50;99.90
11087;DHT22;5597;47.588;9.642;2023-07-28T06:39:23;19.70;99.90
11087;DHT22;5597;47.588;9.642;2023-07-28T06:41:49;19.80;99.90
11087;DHT22;5597;47.588;9.642;2023-07-28T06:44:15;20.00;99.90
11087;DHT22;5597;47.588;9.642;2023-07-28T06:46:41;20.20;99.90
11087;DHT22;5597;47.588;9.642;2023-07-28T06:49:06;20.30;99.90
11087;DHT22;5597;47.588;9.642;2023-07-28T06:51:32;20.30;99.90
11087;DHT22;5597;47.588;9.642;2023-07-28T06:53:58;20.30;99.90
11087;DHT22;5597;47.588;9.642;2023-07-28T06:56:24;20.40;99.90
11087;DHT22;5597;47.588;9.642;2023-07-28T06:58:50;20.70;99.90
11087;DHT22;5597;47.588;9.642;2023-07-28T07:01:15;20.90;99.90
11087;DHT22;5597;47.588;9.642;2023-07-28T07:03:41;21.00;99.90
11087;DHT22;5597;47.588;9.642;2023-07-28T07:06:06;21.10;99.90
11087;DHT22;5597;47.588;9.642;2023-07-28T07:08:32;21.20;99.90
11087;DHT22;5597;47.588;9.642;2023-07-28T07:10:58;21.40;99.90
11087;DHT22;5597;47.588;9.642;2023-07-28T07:13:23;21.50;99.90
11087;DHT22;5597;47.588;9.642;2023-07-28T07:15:49;21.70;99.90
11087;DHT22;5597;47.588;9.642;2023-07-28T07:18:14;21.90;99.90
11087;DHT22;5597;47.588;9.642;2023-07-28T07:20:40;22.00;99.90
11087;DHT22;5597;47.588;9.642;2023-07-28T07:23:06;21.90;99.90
11087;DHT22;5597;47.588;9.642;2023-07-28T07:25:31;21.90;99.90
11087;DHT22;5597;47.588;9.642;2023-07-28T07:27:57;21.80;99.90
11087;DHT22;5597;47.588;9.642;2023-07-28T07:30:23;21.70;99.90
11087;DHT22;5597;47.588;9.642;2023-07-28T07:32:49;21.70;99.90
11087;DHT22;5597;47.588;9.642;2023-07-28T07:35:15;21.70;99.90
11087;DHT22;5597;47.588;9.642;2023-07-28T07:37:41;21.80;99.90
11087;DHT22;5597;47.588;9.642;2023-07-28T07:40:07;21.90;99.90
11087;DHT22;5597;47.588;9.642;2023-07-28T07:43:02;21.90;99.90
11087;DHT22;5597;47.588;9.642;2023-07-28T07:45:29;21.90;99.90
11087;DHT22;5597;47.588;9.642;2023-07-28T07:47:55;21.80;99.90
11087;DHT22;5597;47.588;9.642;2023-07-28T07:50:20;21.80;99.90
11087;DHT22;5597;47.588;9.642;2023-07-28T07:52:47;21.70;99.90
11087;DHT22;5597;47.588;9.642;2023-07-28T07:55:13;21.70;99.90
11087;DHT22;5597;47.588;9.642;2023-07-28T07:57:40;21.60;99.90
11087;DHT22;5597;47.588;9.642;2023-07-28T08:00:06;21.70;99.90
11087;DHT22;5597;47.588;9.642;2023-07-28T08:02:31;21.80;99.90
11087;DHT22;5597;47.588;9.642;2023-07-28T08:04:57;21.80;99.90
11087;DHT22;5597;47.588;9.642;2023-07-28T08:07:22;22.00;99.90
11087;DHT22;5597;47.588;9.642;2023-07-28T08:09:49;22.10;99.90
11087;DHT22;5597;47.588;9.642;2023-07-28T08:12:15;22.30;99.90
11087;DHT22;5597;47.588;9.642;2023-07-28T08:14:40;22.40;99.90
11087;DHT22;5597;47.588;9.642;2023-07-28T08:17:06;22.60;99.90
11087;DHT22;5597;47.588;9.642;2023-07-28T08:19:32;22.80;99.90
11087;DHT22;5597;47.588;9.642;2023-07-28T08:21:57;23.00;99.90
11087;DHT22;5597;47.588;9.642;2023-07-28T08:24:23;23.20;99.90
11087;DHT22;5597;47.588;9.642;2023-07-28T08:26:48;23.50;99.90
11087;DHT22;5597;47.588;9.642;2023-07-28T08:29:15;23.70;99.90
11087;DHT22;5597;47.588;9.642;2023-07-28T08:31:40;23.70;99.90
11087;DHT22;5597;47.588;9.642;2023-07-28T08:34:07;23.80;99.90
11087;DHT22;5597;47.588;9.642;2023-07-28T08:36:33;24.00;99.90
11087;DHT22;5597;47.588;9.642;2023-07-28T08:38:59;24.00;99.90
11087;DHT22;5597;47.588;9.642;2023-07-28T08:41:25;24.00;99.90
11087;DHT22;5597;47.588;9.642;2023-07-28T08:43:50;23.90;99.90
11087;DHT22;5597;47.588;9.642;2023-07-28T08:46:17;23.70;99.90
11087;DHT22;5597;47.588;9.642;2023-07-28T08:48:43;23.70;99.90
11087;DHT22;5597;47.588;9.642;2023-07-28T08:51:09;23.70;99.90
11087;DHT22;5597;47.588;9.642;2023-07-28T08:53:37;24.00;99.90
11087;DHT22;5597;47.588;9.642;2023-07-28T08:56:03;24.30;99.90
11087;DHT22;5597;47.588;9.642;2023-07-28T08:58:30;24.70;99.90
11087;DHT22;5597;47.588;9.642;2023-07-28T09:00:55;24.80;99.90
11087;DHT22;5597;47.588;9.642;2023-07-28T09:03:21;24.80;99.90
11087;DHT22;5597;47.588;9.642;2023-07-28T09:05:48;24.80;99.90
11087;DHT22;5597;47.588;9.642;2023-07-28T09:08:15;24.70;99.90
11087;DHT22;5597;47.588;9.642;2023-07-28T09:10:48;24.60;99.90
11087;DHT22;5597;47.588;9.642;2023-07-28T09:13:15;24.50;99.90
11087;DHT22;5597;47.588;9.642;2023-07-28T09:15:41;24.40;99.90
11087;DHT22;5597;47.588;9.642;2023-07-28T09:18:12;24.50;99.90
11087;DHT22;5597;47.588;9.642;2023-07-28T09:20:39;24.60;99.90
11087;DHT22;5597;47.588;9.642;2023-07-28T09:23:06;24.60;99.90
11087;DHT22;5597;47.588;9.642;2023-07-28T09:25:34;24.60;99.90
11087;DHT22;5597;47.588;9.642;2023-07-28T09:28:00;24.60;99.90
11087;DHT22;5597;47.588;9.642;2023-07-28T09:30:26;24.60;99.90
11087;DHT22;5597;47.588;9.642;2023-07-28T09:32:53;24.60;99.90
11087;DHT22;5597;47.588;9.642;2023-07-28T09:35:21;24.60;99.90
11087;DHT22;5597;47.588;9.642;2023-07-28T09:37:49;24.50;99.90
11087;DHT22;5597;47.588;9.642;2023-07-28T09:40:17;24.60;99.90
11087;DHT22;5597;47.588;9.642;2023-07-28T09:42:45;24.50;99.90
11087;DHT22;5597;47.588;9.642;2023-07-28T09:45:18;24.50;99.90
11087;DHT22;5597;47.588;9.642;2023-07-28T09:47:45;24.50;99.90
11087;DHT22;5597;47.588;9.642;2023-07-28T09:50:15;24.60;99.90
11087;DHT22;5597;47.588;9.642;2023-07-28T09:52:46;24.60;99.90
11087;DHT22;5597;47.588;9.642;2023-07-28T09:55:12;24.60;99.90
11087;DHT22;5597;47.588;9.642;2023-07-28T09:57:46;24.70;99.90
11087;DHT22;5597;47.588;9.642;2023-07-28T10:00:15;24.80;99.90
11087;DHT22;5597;47.588;9.642;2023-07-28T10:02:43;24.90;99.90
11087;DHT22;5597;47.588;9.642;2023-07-28T10:05:09;25.00;99.90
11087;DHT22;5597;47.588;9.642;2023-07-28T10:07:37;25.00;99.90
11087;DHT22;5597;47.588;9.642;2023-07-28T10:10:04;25.10;99.90
11087;DHT22;5597;47.588;9.642;2023-07-28T10:12:43;25.30;99.90
11087;DHT22;5597;47.588;9.642;2023-07-28T10:15:15;25.50;99.90
11087;DHT22;5597;47.588;9.642;2023-07-28T10:17:45;25.70;99.90
11087;DHT22;5597;47.588;9.642;2023-07-28T10:25:34;26.20;99.90
11087;DHT22;5597;47.588;9.642;2023-07-28T10:28:00;26.30;99.90
11087;DHT22;5597;47.588;9.642;2023-07-28T10:30:28;26.50;99.90
11087;DHT22;5597;47.588;9.642;2023-07-28T10:32:54;26.60;99.90
11087;DHT22;5597;47.588;9.642;2023-07-28T10:35:25;26.80;99.90
11087;DHT22;5597;47.588;9.642;2023-07-28T10:37:53;26.90;99.90
11087;DHT22;5597;47.588;9.642;2023-07-28T10:40:28;27.00;99.90
11087;DHT22;5597;47.588;9.642;2023-07-28T10:43:04;27.10;99.90
11087;DHT22;5597;47.588;9.642;2023-07-28T10:45:33;27.20;99.90
11087;DHT22;5597;47.588;9.642;2023-07-28T10:47:59;27.30;99.90
11087;DHT22;5597;47.588;9.642;2023-07-28T10:50:32;27.50;99.90
11087;DHT22;5597;47.588;9.642;2023-07-28T10:52:58;27.70;99.90
11087;DHT22;5597;47.588;9.642;2023-07-28T10:55:25;27.80;99.90
11087;DHT22;5597;47.588;9.642;2023-07-28T10:57:53;27.80;99.90
11087;DHT22;5597;47.588;9.642;2023-07-28T11:00:19;27.80;99.90
11087;DHT22;5597;47.588;9.642;2023-07-28T11:02:48;27.80;99.90
11087;DHT22;5597;47.588;9.642;2023-07-28T11:05:22;28.00;99.90
11087;DHT22;5597;47.588;9.642;2023-07-28T11:07:49;28.40;99.90
11087;DHT22;5597;47.588;9.642;2023-07-28T11:10:15;28.90;99.90
11087;DHT22;5597;47.588;9.642;2023-07-28T11:12:43;29.30;99.90
11087;DHT22;5597;47.588;9.642;2023-07-28T11:15:10;29.30;99.90
11087;DHT22;5597;47.588;9.642;2023-07-28T11:17:40;29.20;99.90
11087;DHT22;5597;47.588;9.642;2023-07-28T11:20:16;29.10;99.90
11087;DHT22;5597;47.588;9.642;2023-07-28T11:22:55;29.20;99.90
11087;DHT22;5597;47.588;9.642;2023-07-28T11:25:25;29.30;99.90
11087;DHT22;5597;47.588;9.642;2023-07-28T11:27:51;29.20;99.90
11087;DHT22;5597;47.588;9.642;2023-07-28T11:30:18;29.10;99.90
11087;DHT22;5597;47.588;9.642;2023-07-28T11:32:46;28.90;99.90
11087;DHT22;5597;47.588;9.642;2023-07-28T11:35:13;28.80;99.90
11087;DHT22;5597;47.588;9.642;2023-07-28T11:37:40;28.80;99.90
11087;DHT22;5597;47.588;9.642;2023-07-28T11:40:08;28.90;99.90
11087;DHT22;5597;47.588;9.642;2023-07-28T11:42:38;29.20;99.90
11087;DHT22;5597;47.588;9.642;2023-07-28T11:45:04;29.70;99.90
11087;DHT22;5597;47.588;9.642;2023-07-28T11:47:31;30.10;99.90
11087;DHT22;5597;47.588;9.642;2023-07-28T11:49:57;30.40;99.90
11087;DHT22;5597;47.588;9.642;2023-07-28T11:52:33;30.60;99.90
11087;DHT22;5597;47.588;9.642;2023-07-28T11:55:00;30.60;99.90
11087;DHT22;5597;47.588;9.642;2023-07-28T11:57:27;30.50;99.90
11087;DHT22;5597;47.588;9.642;2023-07-28T11:59:56;30.30;99.90
11087;DHT22;5597;47.588;9.642;2023-07-28T12:02:29;30.20;99.90
11087;DHT22;5597;47.588;9.642;2023-07-28T12:04:56;30.20;99.90
11087;DHT22;5597;47.588;9.642;2023-07-28T12:07:33;30.00;99.90
11087;DHT22;5597;47.588;9.642;2023-07-28T12:10:03;29.90;99.90
11087;DHT22;5597;47.588;9.642;2023-07-28T12:12:38;29.80;99.90
11087;DHT22;5597;47.588;9.642;2023-07-28T12:18:13;29.50;99.90
11087;DHT22;5597;47.588;9.642;2023-07-28T12:20:40;29.40;99.90
11087;DHT22;5597;47.588;9.642;2023-07-28T12:23:08;29.30;99.90
11087;DHT22;5597;47.588;9.642;2023-07-28T12:25:36;29.20;99.90
11087;DHT22;5597;47.588;9.642;2023-07-28T12:28:02;29.10;99.90
11087;DHT22;5597;47.588;9.642;2023-07-28T12:30:28;28.90;99.90
11087;DHT22;5597;47.588;9.642;2023-07-28T12:32:54;28.60;99.90
11087;DHT22;5597;47.588;9.642;2023-07-28T12:35:19;28.50;99.90
11087;DHT22;5597;47.588;9.642;2023-07-28T12:37:51;28.30;99.90
11087;DHT22;5597;47.588;9.642;2023-07-28T12:40:18;28.30;99.90
11087;DHT22;5597;47.588;9.642;2023-07-28T12:42:45;28.40;99.90
11087;DHT22;5597;47.588;9.642;2023-07-28T12:45:11;28.60;99.90
11087;DHT22;5597;47.588;9.642;2023-07-28T12:47:38;29.00;99.90
11087;DHT22;5597;47.588;9.642;2023-07-28T12:50:03;29.50;99.90
11087;DHT22;5597;47.588;9.642;2023-07-28T12:52:31;30.00;99.90
11087;DHT22;5597;47.588;9.642;2023-07-28T12:54:57;30.40;99.90
11087;DHT22;5597;47.588;9.642;2023-07-28T12:57:24;30.80;99.90
11087;DHT22;5597;47.588;9.642;2023-07-28T12:59:49;31.30;99.90
11087;DHT22;5597;47.588;9.642;2023-07-28T13:02:15;31.70;99.90
11087;DHT22;5597;47.588;9.642;2023-07-28T13:04:41;32.20;99.90
11087;DHT22;5597;47.588;9.642;2023-07-28T13:07:06;32.50;99.90
11087;DHT22;5597;47.588;9.642;2023-07-28T13:09:32;32.80;99.90
11087;DHT22;5597;47.588;9.642;2023-07-28T13:11:57;33.00;98.70
11087;DHT22;5597;47.588;9.642;2023-07-28T13:14:24;32.90;98.20
11087;DHT22;5597;47.588;9.642;2023-07-28T13:16:50;32.80;97.70
11087;DHT22;5597;47.588;9.642;2023-07-28T13:19:16;32.60;97.20
11087;DHT22;5597;47.588;9.642;2023-07-28T13:21:41;32.30;96.90
11087;DHT22;5597;47.588;9.642;2023-07-28T13:24:07;31.80;96.80
11087;DHT22;5597;47.588;9.642;2023-07-28T13:26:33;31.40;97.70
11087;DHT22;5597;47.588;9.642;2023-07-28T13:28:58;31.20;98.20
11087;DHT22;5597;47.588;9.642;2023-07-28T13:31:29;31.30;98.90
11087;DHT22;5597;47.588;9.642;2023-07-28T13:33:54;31.80;98.80
11087;DHT22;5597;47.588;9.642;2023-07-28T13:36:20;32.20;97.50
11087;DHT22;5597;47.588;9.642;2023-07-28T13:38:45;32.60;97.60
11087;DHT22;5597;47.588;9.642;2023-07-28T13:41:11;32.80;94.90
11087;DHT22;5597;47.588;9.642;2023-07-28T13:43:37;32.80;95.20
11087;DHT22;5597;47.588;9.642;2023-07-28T13:46:04;32.70;94.90
11087;DHT22;5597;47.588;9.642;2023-07-28T13:48:38;32.60;95.10
11087;DHT22;5597;47.588;9.642;2023-07-28T13:51:04;32.60;96.00
11087;DHT22;5597;47.588;9.642;2023-07-28T13:53:30;32.80;96.00
11087;DHT22;5597;47.588;9.642;2023-07-28T13:55:56;33.20;94.70
11087;DHT22;5597;47.588;9.642;2023-07-28T13:58:21;33.20;94.50
11087;DHT22;5597;47.588;9.642;2023-07-28T14:00:47;33.30;94.00
11087;DHT22;5597;47.588;9.642;2023-07-28T14:03:12;33.20;94.40
11087;DHT22;5597;47.588;9.642;2023-07-28T14:05:39;33.10;94.00
11087;DHT22;5597;47.588;9.642;2023-07-28T14:08:05;33.00;94.10
11087;DHT22;5597;47.588;9.642;2023-07-28T14:10:30;33.00;93.40
11087;DHT22;5597;47.588;9.642;2023-07-28T14:12:58;33.00;93.90
11087;DHT22;5597;47.588;9.642;2023-07-28T14:15:23;33.20;93.20
11087;DHT22;5597;47.588;9.642;2023-07-28T14:17:49;33.30;93.00
11087;DHT22;5597;47.588;9.642;2023-07-28T14:20:15;33.20;92.10
11087;DHT22;5597;47.588;9.642;2023-07-28T14:22:40;33.10;92.20
11087;DHT22;5597;47.588;9.642;2023-07-28T14:25:06;33.00;91.60
11087;DHT22;5597;47.588;9.642;2023-07-28T14:27:32;32.60;92.00
11087;DHT22;5597;47.588;9.642;2023-07-28T14:29:57;32.10;92.00
11087;DHT22;5597;47.588;9.642;2023-07-28T14:32:23;31.70;92.90
11087;DHT22;5597;47.588;9.642;2023-07-28T14:34:48;31.50;93.10
11087;DHT22;5597;47.588;9.642;2023-07-28T14:37:14;31.40;93.10
11087;DHT22;5597;47.588;9.642;2023-07-28T14:39:39;31.40;92.70
11087;DHT22;5597;47.588;9.642;2023-07-28T14:42:05;31.30;93.50
11087;DHT22;5597;47.588;9.642;2023-07-28T14:44:31;31.20;93.70
11087;DHT22;5597;47.588;9.642;2023-07-28T14:46:56;31.10;93.50
11087;DHT22;5597;47.588;9.642;2023-07-28T14:49:22;30.80;94.00
11087;DHT22;5597;47.588;9.642;2023-07-28T14:51:48;30.50;94.50
11087;DHT22;5597;47.588;9.642;2023-07-28T14:54:13;30.30;94.80
11087;DHT22;5597;47.588;9.642;2023-07-28T14:56:39;30.00;95.10
11087;DHT22;5597;47.588;9.642;2023-07-28T14:59:05;29.80;95.80
11087;DHT22;5597;47.588;9.642;2023-07-28T15:01:31;29.50;95.80
11087;DHT22;5597;47.588;9.642;2023-07-28T15:03:58;29.30;96.30
11087;DHT22;5597;47.588;9.642;2023-07-28T15:06:24;29.10;97.00
11087;DHT22;5597;47.588;9.642;2023-07-28T15:08:50;28.80;96.90
11087;DHT22;5597;47.588;9.642;2023-07-28T15:11:16;28.60;97.10
11087;DHT22;5597;47.588;9.642;2023-07-28T15:13:43;28.50;97.20
11087;DHT22;5597;47.588;9.642;2023-07-28T15:16:09;28.30;97.90
11087;DHT22;5597;47.588;9.642;2023-07-28T15:18:34;28.20;98.30
11087;DHT22;5597;47.588;9.642;2023-07-28T15:21:00;28.20;98.30
11087;DHT22;5597;47.588;9.642;2023-07-28T15:23:26;28.10;98.70
11087;DHT22;5597;47.588;9.642;2023-07-28T15:25:52;28.00;99.40
11087;DHT22;5597;47.588;9.642;2023-07-28T15:28:18;27.80;99.40
11087;DHT22;5597;47.588;9.642;2023-07-28T15:30:44;27.70;99.90
11087;DHT22;5597;47.588;9.642;2023-07-28T15:33:13;27.60;99.90
11087;DHT22;5597;47.588;9.642;2023-07-28T15:35:40;27.50;99.90
11087;DHT22;5597;47.588;9.642;2023-07-28T15:38:06;27.40;99.90
11087;DHT22;5597;47.588;9.642;2023-07-28T15:40:32;27.20;99.90
11087;DHT22;5597;47.588;9.642;2023-07-28T15:42:57;27.10;99.90
11087;DHT22;5597;47.588;9.642;2023-07-28T15:45:23;27.00;99.90
11087;DHT22;5597;47.588;9.642;2023-07-28T15:47:48;26.80;99.90
11087;DHT22;5597;47.588;9.642;2023-07-28T15:50:14;26.70;99.90
11087;DHT22;5597;47.588;9.642;2023-07-28T15:52:39;26.60;99.90
11087;DHT22;5597;47.588;9.642;2023-07-28T15:55:05;26.40;99.90